Flight Track Log - Related Links

Times and Time Zones

All times are in EDT time to prevent confusion due to time zone crossing. See the AWI3758 flight status page for this flight to view local times or setup timezone preferences in your user account.

Time Position Orientation Groundspeed Altitude Reporting Facility
EDT Latitude Longitude Course Direction KTS MPH feet Rate Location/Type
Tue 03:43:30 PM 35.1928 -80.9331 195° South 159 183 1,400  Level Atlanta Center
Tue 03:45:01 PM 35.1081 -80.9617 195° South 249 287 4,100 1,941 Climbing Atlanta Center
Tue 03:45:46 PM 35.0931 -81.0281 255° West 281 323 5,800 2,597 Climbing Atlanta Center
Tue 03:46:08 PM 35.0914 -81.0536 265° West 279 321 7,000 2,200 Climbing Atlanta Center
Tue 03:46:46 PM 35.0972 -81.1169 276° West 272 313 8,000 1,408 Climbing Atlanta Center
Tue 03:47:46 PM 35.1219 -81.1972 291° West 291 335 9,300 1,800 Climbing Atlanta Center
Tue 03:48:46 PM 35.1897 -81.2331 337° Northwest 248 285 11,600 1,900 Climbing Atlanta Center
Tue 03:49:46 PM 35.2769 -81.2175 North 284 327 13,100 1,550 Climbing Atlanta Center
Tue 03:50:46 PM 35.3636 -81.1814 19° North 310 357 14,700 1,800 Climbing Atlanta Center
Tue 03:51:46 PM 35.4617 -81.1728 North 341 392 16,700 1,700 Climbing Atlanta Center
Tue 03:52:46 PM 35.5636 -81.1642 North 349 402 18,100 1,400 Climbing Atlanta Center
Tue 03:53:46 PM 35.6697 -81.1528 North 370 426 19,500 1,400 Climbing Atlanta Center
Tue 03:54:46 PM 35.7719 -81.1492 North 370 426 20,900 1,400 Climbing Atlanta Center
Tue 03:55:46 PM 35.8761 -81.1428 North 370 426 22,300 1,350 Climbing Atlanta Center
Tue 03:56:46 PM 35.9800 -81.1339 North 365 420 23,600 1,150 Climbing Atlanta Center
Tue 03:57:46 PM 36.0842 -81.1253 North 365 420 24,600 1,050 Climbing Atlanta Center
Tue 03:58:46 PM 36.1861 -81.1189 North 365 420 25,700 950 Climbing Atlanta Center
Tue 03:59:46 PM 36.2800 -81.1103 North 365 420 26,500 900 Climbing Atlanta Center
Tue 04:00:46 PM 36.3839 -81.1014 North 370 426 27,500 1,000 Climbing Atlanta Center
Tue 04:01:46 PM 36.4881 -81.0950 North 370 426 28,500 1,050 Climbing Atlanta Center
Tue 04:02:46 PM 36.5881 -81.0861 North 365 420 29,600 950 Climbing Atlanta Center
Tue 04:03:46 PM 36.6858 -81.0800 North 360 414 30,400 702 Climbing Atlanta Center
Tue 04:06:11 PM 36.9292 -81.0614 North 348 400 32,000 609 Climbing Indianapolis Center
Tue 04:07:13 PM 37.0300 -81.0544 North 363 418 32,500 484 Climbing Indianapolis Center
Tue 04:08:15 PM 37.1278 -81.0469 North 362 417 33,000 242 Climbing Indianapolis Center
Tue 04:09:17 PM 37.2486 -81.0392 North 371 427 33,000  Level Indianapolis Center
Tue 04:10:19 PM 37.3531 -81.0300 North 382 440 33,000  Level Indianapolis Center
Tue 04:11:21 PM 37.4622 -81.0211 North 399 459 33,000  Level Indianapolis Center
Tue 04:12:23 PM 37.5725 -81.0139 North 404 465 33,000  Level Indianapolis Center
Tue 04:13:25 PM 37.7092 -81.0033 North 418 481 33,000  Level Indianapolis Center
Tue 04:14:27 PM 37.8244 -80.9925 North 419 482 33,000  Level Indianapolis Center
Tue 04:15:29 PM 37.9453 -80.9842 North 431 496 33,000  Level Indianapolis Center
Tue 04:16:31 PM 38.0628 -80.9758 North 424 488 33,000  Level Indianapolis Center
Tue 04:17:33 PM 38.1825 -80.9656 North 429 494 33,000  Level Indianapolis Center
Tue 04:18:35 PM 38.3258 -80.9544 North 430 495 33,000  Level Indianapolis Center
Tue 04:19:37 PM 38.4436 -80.9456 North 427 491 33,000  Level Indianapolis Center
Tue 04:20:39 PM 38.5625 -80.9350 North 429 494 33,000  Level Indianapolis Center
Tue 04:21:41 PM 38.6808 -80.9253 North 428 493 33,000 -145 Level Indianapolis Center
Tue 04:22:43 PM 38.7992 -80.9161 North 429 494 32,700 -484 Descending Indianapolis Center
Tue 04:23:45 PM 38.9486 -80.9047 North 447 514 32,000 -336 Descending Indianapolis Center
Tue 04:24:48 PM 39.0719 -80.8931 North 447 514 32,000  Level Indianapolis Center
Tue 04:25:50 PM 39.1953 -80.8836 North 445 512 32,000  Level Indianapolis Center
Tue 04:26:52 PM 39.3186 -80.8725 North 445 512 32,000  Level Indianapolis Center
Tue 04:27:55 PM 39.4425 -80.8631 North 445 512 32,000  Level Indianapolis Center
Tue 04:28:56 PM 39.5675 -80.8522 North 449 517 32,000  Level Indianapolis Center
Tue 04:29:22 PM 39.6311 -80.8472 North 444 511 32,000  Level Cleveland Center
Tue 04:30:21 PM 39.7542 -80.8394 North 444 511 32,000  Level Cleveland Center
Tue 04:31:21 PM 39.8814 -80.8428 359° North 444 511 32,000  Level Cleveland Center
Tue 04:32:21 PM 40.0083 -80.8569 355° North 444 511 32,000 500 Level Cleveland Center
Tue 04:33:21 PM 40.1294 -80.8708 355° North 444 511 33,000 500 Climbing Cleveland Center
Tue 04:34:21 PM 40.2442 -80.8333 14° North 423 487 33,000  Level Cleveland Center
Tue 04:35:21 PM 40.3483 -80.7683 25° Northeast 405 466 33,000  Level Cleveland Center
Tue 04:36:21 PM 40.4631 -80.6922 27° Northeast 405 466 33,000  Level Cleveland Center
Tue 04:37:21 PM 40.5675 -80.6214 27° Northeast 411 473 33,000  Level Cleveland Center
Tue 04:38:21 PM 40.6592 -80.5586 27° Northeast 416 479 33,000  Level Cleveland Center
Tue 04:39:21 PM 40.7675 -80.4844 27° Northeast 416 479 33,000  Level Cleveland Center
Tue 04:40:21 PM 40.8842 -80.4047 27° Northeast 423 487 33,000  Level Cleveland Center
Tue 04:41:21 PM 40.9925 -80.3300 27° Northeast 429 494 33,000  Level Cleveland Center
Tue 04:42:21 PM 41.1028 -80.2553 27° Northeast 429 494 33,000  Level Cleveland Center
Tue 04:43:21 PM 41.2108 -80.1803 28° Northeast 429 494 33,000  Level Cleveland Center
Tue 04:44:21 PM 41.3192 -80.1047 28° Northeast 429 494 33,000  Level Cleveland Center
Tue 04:45:21 PM 41.4311 -80.0264 28° Northeast 429 494 33,000  Level Cleveland Center
Tue 04:46:22 PM 41.5289 -79.9619 26° Northeast 429 494 33,000  Level Cleveland Center
Tue 04:47:21 PM 41.6389 -79.8831 28° Northeast 429 494 33,000 -504 Level Cleveland Center
Tue 04:48:21 PM 41.7633 -79.7925 28° Northeast 446 513 32,000 -1,240 Descending Cleveland Center
Tue 04:49:22 PM 41.8836 -79.7103 27° Northeast 470 541 30,500 -1,400 Descending Cleveland Center
Tue 04:50:21 PM 41.9872 -79.6361 28° Northeast 470 541 29,200 -1,250 Descending Cleveland Center
Tue 04:51:22 PM 42.1014 -79.5561 27° Northeast 465 535 28,000 -645 Descending Cleveland Center
Tue 04:52:22 PM 42.2131 -79.4758 28° Northeast 459 528 27,900 -605 Descending Cleveland Center
Tue 04:53:21 PM 42.3250 -79.3953 28° Northeast 454 522 26,800 -1,462 Descending Cleveland Center
Tue 04:54:21 PM 42.4408 -79.3114 28° Northeast 454 522 25,000 -1,934 Descending Cleveland Center
Tue 04:55:22 PM 42.5697 -79.2836 North 454 522 22,900 -2,033 Descending Cleveland Center
Tue 04:56:22 PM 42.7053 -79.2947 357° North 447 514 20,900 -2,017 Descending Cleveland Center
Tue 04:57:21 PM 42.8303 -79.3064 356° North 447 514 18,900 -2,036 Descending Cleveland Center
Tue 04:58:14 PM 42.9333 -79.3000 North 440 506 17,100 -2,018 Descending Toronto Center
Tue 04:59:14 PM 43.0333 -79.3167 353° North 430 495 15,100 -1,500 Descending Toronto Center
Tue 05:00:14 PM 43.1667 -79.3167 360° North 420 483 14,100 -1,000 Descending Toronto Center
Tue 05:01:14 PM 43.2667 -79.3333 353° North 420 483 13,100 -1,000 Descending Toronto Center
Tue 05:02:14 PM 43.3833 -79.3833 343° North 410 472 12,100 -1,000 Descending Toronto Center
Tue 05:03:14 PM 43.4833 -79.4000 353° North 400 460 11,100 -800 Descending Toronto Center
Tue 05:05:14 PM 43.6333 -79.4500 346° North 260 299 9,700 -833 Descending Toronto Center
Tue 05:06:14 PM 43.6000 -79.5167 235° Southwest 240 276 8,600 -1,000 Descending Toronto Center
Tue 05:07:14 PM 43.5500 -79.5667 216° Southwest 240 276 7,700 -1,150 Descending Toronto Center
Tue 05:08:14 PM 43.5167 -79.6333 235° Southwest 230 265 6,300 -1,500 Descending Toronto Center
Tue 05:09:14 PM 43.4833 -79.7000 235° Southwest 220 253 4,700 -1,400 Descending Toronto Center
Tue 05:10:14 PM 43.5333 -79.7500 324° Northwest 210 242 3,500 -950 Descending Toronto Center
Tue 05:11:14 PM 43.5667 -79.7167 36° Northeast 180 207 2,800 -850 Descending Toronto Center
Tue 05:12:14 PM 43.6000 -79.6500 55° Northeast 180 207 1,800 -900 Descending Toronto Center
Tue 05:13:14 PM 43.6333 -79.6333 20° North 160 184 1,000 -650 Descending Toronto Center
Tue 05:14:14 PM 43.6667 -79.5833 47° Northeast 150 173 500 -500 Descending Toronto Center

Login

Don't have an account? Register now (free) for customized features, flight alerts, and more!